This is the latest recevied weather packets stored in our database for station/object DL6DJ-15. If no packets are shown the sender has not sent any weather packets the latest 10 day(s).
| Time | Temp. | Humidity | Pressure | Rain* | Wind** | Luminosity | Snow |
|---|---|---|---|---|---|---|---|
| 1788592452 | 21.67° C | 67% | 1022.9 hPa | - | - | - | - |
| 1788592152 | 19.44° C | 76% | 1022.8 hPa | - | - | - | - |
| 1788591852 | 17.78° C | 82% | 1022.8 hPa | - | - | - | - |
| 1788591551 | 17.22° C | 89% | 1022.8 hPa | - | - | - | - |
| 1788591251 | 16.11° C | 92% | 1022.8 hPa | - | - | - | - |
| 1788590950 | 15.56° C | 95% | 1022.9 hPa | - | - | - | - |
| 1788590650 | 15.56° C | 97% | 1022.7 hPa | - | - | - | - |
| 1788590349 | 15° C | 97% | 1022.5 hPa | - | - | - | - |
| 1788590049 | 15° C | 97% | 1022.5 hPa | - | - | - | - |
| 1788589749 | 15° C | 98% | 1022.5 hPa | - | - | - | - |
| 1788589448 | 14.44° C | 98% | 1022.5 hPa | - | - | - | - |
| 1788589148 | 14.44° C | 98% | 1022.6 hPa | - | - | - | - |
| 1788588848 | 14.44° C | 98% | 1022.5 hPa | - | - | - | - |
| 1788588547 | 14.44° C | 99% | 1022.5 hPa | - | - | - | - |
| 1788588247 | 14.44° C | 99% | 1022.4 hPa | - | - | - | - |
| 1788587947 | 14.44° C | 99% | 1022.4 hPa | - | - | - | - |
| 1788587646 | 13.89° C | 100% | 1022.3 hPa | - | - | - | - |
| 1788587346 | 13.89° C | 99% | 1022.1 hPa | - | - | - | - |
| 1788587045 | 14.44° C | 99% | 1022.3 hPa | - | - | - | - |
| 1788586745 | 13.89° C | 100% | 1022.1 hPa | - | - | - | - |
| 1788586444 | 14.44° C | 100% | 1022.1 hPa | - | - | - | - |
| 1788586144 | 14.44° C | 100% | 1022 hPa | - | - | - | - |
| 1788585843 | 14.44° C | 100% | 1021.9 hPa | - | - | - | - |
| 1788585543 | 14.44° C | 99% | 1021.9 hPa | - | - | - | - |
| 1788585242 | 14.44° C | 100% | 1021.8 hPa | - | - | - | - |
* Rain since midnight (hover to see other rain measurements)
** Current wind speed in m/s (hover to see current wind gust speed)